sensor_id;sensor_type;location;lat;lon;timestamp;P1;durP1;ratioP1;P2;durP2;ratioP2
22421;SDS011;11378;51.642;7.668;2023-03-01T00:01:05;2.78;;;2.17;;
22421;SDS011;11378;51.642;7.668;2023-03-01T00:03:33;2.40;;;1.80;;
22421;SDS011;11378;51.642;7.668;2023-03-01T00:06:00;2.72;;;2.10;;
22421;SDS011;11378;51.642;7.668;2023-03-01T00:08:26;3.65;;;2.17;;
22421;SDS011;11378;51.642;7.668;2023-03-01T00:13:34;2.72;;;2.05;;
22421;SDS011;11378;51.642;7.668;2023-03-01T00:16:04;2.65;;;2.00;;
22421;SDS011;11378;51.642;7.668;2023-03-01T00:18:31;4.25;;;2.05;;
22421;SDS011;11378;51.642;7.668;2023-03-01T00:20:57;2.13;;;1.77;;
22421;SDS011;11378;51.642;7.668;2023-03-01T00:23:23;3.17;;;1.92;;
22421;SDS011;11378;51.642;7.668;2023-03-01T00:25:50;2.17;;;1.98;;
22421;SDS011;11378;51.642;7.668;2023-03-01T00:28:16;2.55;;;2.00;;
22421;SDS011;11378;51.642;7.668;2023-03-01T00:30:42;3.38;;;2.13;;
22421;SDS011;11378;51.642;7.668;2023-03-01T00:33:09;2.10;;;1.90;;
22421;SDS011;11378;51.642;7.668;2023-03-01T00:35:35;2.25;;;1.70;;
22421;SDS011;11378;51.642;7.668;2023-03-01T00:38:02;3.22;;;2.35;;
22421;SDS011;11378;51.642;7.668;2023-03-01T00:40:30;2.25;;;1.58;;
22421;SDS011;11378;51.642;7.668;2023-03-01T00:42:56;3.22;;;2.15;;
22421;SDS011;11378;51.642;7.668;2023-03-01T00:45:22;2.45;;;1.80;;
22421;SDS011;11378;51.642;7.668;2023-03-01T00:47:49;2.47;;;1.92;;
22421;SDS011;11378;51.642;7.668;2023-03-01T00:50:16;3.22;;;2.15;;
22421;SDS011;11378;51.642;7.668;2023-03-01T00:52:42;2.20;;;1.80;;
22421;SDS011;11378;51.642;7.668;2023-03-01T00:55:09;2.20;;;1.98;;
22421;SDS011;11378;51.642;7.668;2023-03-01T00:57:35;2.30;;;2.00;;
22421;SDS011;11378;51.642;7.668;2023-03-01T01:00:03;5.22;;;2.00;;
22421;SDS011;11378;51.642;7.668;2023-03-01T01:02:31;2.67;;;2.00;;
22421;SDS011;11378;51.642;7.668;2023-03-01T01:04:58;1.73;;;1.60;;
22421;SDS011;11378;51.642;7.668;2023-03-01T01:07:24;2.53;;;1.92;;
22421;SDS011;11378;51.642;7.668;2023-03-01T01:09:51;2.28;;;1.92;;
22421;SDS011;11378;51.642;7.668;2023-03-01T01:12:17;2.58;;;2.30;;
22421;SDS011;11378;51.642;7.668;2023-03-01T01:14:44;2.17;;;1.95;;
22421;SDS011;11378;51.642;7.668;2023-03-01T01:17:10;2.28;;;2.00;;
22421;SDS011;11378;51.642;7.668;2023-03-01T01:19:36;2.50;;;1.92;;
22421;SDS011;11378;51.642;7.668;2023-03-01T01:22:03;2.10;;;1.77;;
22421;SDS011;11378;51.642;7.668;2023-03-01T01:24:30;2.30;;;1.80;;
22421;SDS011;11378;51.642;7.668;2023-03-01T01:26:56;2.17;;;1.98;;
22421;SDS011;11378;51.642;7.668;2023-03-01T01:29:22;2.65;;;1.85;;
22421;SDS011;11378;51.642;7.668;2023-03-01T01:31:49;2.10;;;1.80;;
22421;SDS011;11378;51.642;7.668;2023-03-01T01:34:16;2.45;;;1.95;;
22421;SDS011;11378;51.642;7.668;2023-03-01T01:36:42;2.80;;;2.20;;
22421;SDS011;11378;51.642;7.668;2023-03-01T01:39:09;2.30;;;1.90;;
22421;SDS011;11378;51.642;7.668;2023-03-01T01:41:39;2.45;;;1.90;;
22421;SDS011;11378;51.642;7.668;2023-03-01T01:44:12;2.65;;;1.85;;
22421;SDS011;11378;51.642;7.668;2023-03-01T01:46:40;2.38;;;1.80;;
22421;SDS011;11378;51.642;7.668;2023-03-01T01:49:09;2.13;;;1.92;;
22421;SDS011;11378;51.642;7.668;2023-03-01T01:51:38;2.20;;;1.90;;
22421;SDS011;11378;51.642;7.668;2023-03-01T01:54:13;2.05;;;1.70;;
22421;SDS011;11378;51.642;7.668;2023-03-01T01:56:42;3.25;;;2.13;;
22421;SDS011;11378;51.642;7.668;2023-03-01T01:59:09;2.10;;;1.80;;
22421;SDS011;11378;51.642;7.668;2023-03-01T02:01:35;2.10;;;1.73;;
22421;SDS011;11378;51.642;7.668;2023-03-01T02:04:01;2.50;;;1.80;;
22421;SDS011;11378;51.642;7.668;2023-03-01T02:06:29;2.33;;;1.83;;
22421;SDS011;11378;51.642;7.668;2023-03-01T02:08:59;2.63;;;2.10;;
22421;SDS011;11378;51.642;7.668;2023-03-01T02:11:26;2.65;;;1.92;;
22421;SDS011;11378;51.642;7.668;2023-03-01T02:13:53;2.85;;;1.73;;
22421;SDS011;11378;51.642;7.668;2023-03-01T02:16:20;2.65;;;1.90;;
22421;SDS011;11378;51.642;7.668;2023-03-01T02:18:47;2.00;;;1.80;;
22421;SDS011;11378;51.642;7.668;2023-03-01T02:23:45;2.78;;;2.17;;
22421;SDS011;11378;51.642;7.668;2023-03-01T02:28:40;2.33;;;1.70;;
22421;SDS011;11378;51.642;7.668;2023-03-01T02:31:07;2.10;;;1.90;;
22421;SDS011;11378;51.642;7.668;2023-03-01T02:33:52;2.47;;;1.98;;
22421;SDS011;11378;51.642;7.668;2023-03-01T02:36:20;2.47;;;2.00;;
22421;SDS011;11378;51.642;7.668;2023-03-01T02:38:48;2.30;;;2.00;;
22421;SDS011;11378;51.642;7.668;2023-03-01T02:41:16;2.55;;;1.92;;
22421;SDS011;11378;51.642;7.668;2023-03-01T02:43:44;3.00;;;1.83;;
22421;SDS011;11378;51.642;7.668;2023-03-01T02:46:21;2.38;;;1.73;;
22421;SDS011;11378;51.642;7.668;2023-03-01T02:48:49;2.58;;;2.10;;
22421;SDS011;11378;51.642;7.668;2023-03-01T02:56:31;2.30;;;1.70;;
22421;SDS011;11378;51.642;7.668;2023-03-01T02:58:57;2.72;;;1.85;;
22421;SDS011;11378;51.642;7.668;2023-03-01T03:01:27;2.65;;;1.73;;
22421;SDS011;11378;51.642;7.668;2023-03-01T03:04:06;2.00;;;1.70;;
22421;SDS011;11378;51.642;7.668;2023-03-01T03:06:33;2.55;;;1.80;;
22421;SDS011;11378;51.642;7.668;2023-03-01T03:09:00;3.10;;;1.90;;
22421;SDS011;11378;51.642;7.668;2023-03-01T03:11:26;2.78;;;1.90;;
22421;SDS011;11378;51.642;7.668;2023-03-01T03:13:53;2.58;;;1.95;;
22421;SDS011;11378;51.642;7.668;2023-03-01T03:16:20;1.90;;;1.80;;
22421;SDS011;11378;51.642;7.668;2023-03-01T03:18:46;2.75;;;1.95;;
22421;SDS011;11378;51.642;7.668;2023-03-01T03:21:13;1.92;;;1.70;;
22421;SDS011;11378;51.642;7.668;2023-03-01T03:23:40;3.25;;;2.47;;
22421;SDS011;11378;51.642;7.668;2023-03-01T03:26:06;2.55;;;1.77;;
22421;SDS011;11378;51.642;7.668;2023-03-01T03:28:33;3.40;;;2.30;;
22421;SDS011;11378;51.642;7.668;2023-03-01T03:30:59;2.65;;;2.15;;
22421;SDS011;11378;51.642;7.668;2023-03-01T03:33:32;1.95;;;1.77;;
22421;SDS011;11378;51.642;7.668;2023-03-01T03:35:58;2.33;;;2.03;;
22421;SDS011;11378;51.642;7.668;2023-03-01T03:38:24;3.05;;;2.28;;
22421;SDS011;11378;51.642;7.668;2023-03-01T03:40:52;2.17;;;1.80;;
22421;SDS011;11378;51.642;7.668;2023-03-01T03:43:21;2.95;;;2.05;;
22421;SDS011;11378;51.642;7.668;2023-03-01T03:45:49;2.80;;;2.30;;
22421;SDS011;11378;51.642;7.668;2023-03-01T03:48:15;2.08;;;1.67;;
22421;SDS011;11378;51.642;7.668;2023-03-01T03:50:46;2.88;;;2.00;;
22421;SDS011;11378;51.642;7.668;2023-03-01T03:53:13;2.30;;;1.80;;
22421;SDS011;11378;51.642;7.668;2023-03-01T03:55:39;1.83;;;1.73;;
22421;SDS011;11378;51.642;7.668;2023-03-01T03:58:09;2.80;;;2.08;;
22421;SDS011;11378;51.642;7.668;2023-03-01T04:00:36;2.50;;;1.75;;
22421;SDS011;11378;51.642;7.668;2023-03-01T04:03:03;1.90;;;1.70;;
22421;SDS011;11378;51.642;7.668;2023-03-01T04:05:30;3.92;;;1.92;;
22421;SDS011;11378;51.642;7.668;2023-03-01T04:07:56;2.28;;;1.85;;
22421;SDS011;11378;51.642;7.668;2023-03-01T04:10:33;2.33;;;1.67;;
22421;SDS011;11378;51.642;7.668;2023-03-01T04:13:00;2.72;;;1.85;;
22421;SDS011;11378;51.642;7.668;2023-03-01T04:15:26;2.67;;;2.05;;
22421;SDS011;11378;51.642;7.668;2023-03-01T04:17:53;2.33;;;1.92;;
22421;SDS011;11378;51.642;7.668;2023-03-01T04:20:24;2.40;;;2.00;;
22421;SDS011;11378;51.642;7.668;2023-03-01T04:23:12;2.53;;;1.95;;
22421;SDS011;11378;51.642;7.668;2023-03-01T04:25:53;2.80;;;2.05;;
22421;SDS011;11378;51.642;7.668;2023-03-01T04:28:29;2.67;;;2.05;;
22421;SDS011;11378;51.642;7.668;2023-03-01T04:30:58;1.90;;;1.73;;
22421;SDS011;11378;51.642;7.668;2023-03-01T04:33:25;2.58;;;1.90;;
22421;SDS011;11378;51.642;7.668;2023-03-01T04:35:51;2.72;;;2.28;;
22421;SDS011;11378;51.642;7.668;2023-03-01T04:38:18;2.50;;;2.00;;
22421;SDS011;11378;51.642;7.668;2023-03-01T04:40:45;2.20;;;2.00;;
22421;SDS011;11378;51.642;7.668;2023-03-01T04:43:11;3.50;;;2.13;;
22421;SDS011;11378;51.642;7.668;2023-03-01T04:45:42;2.22;;;2.03;;
22421;SDS011;11378;51.642;7.668;2023-03-01T04:48:09;3.05;;;2.25;;
22421;SDS011;11378;51.642;7.668;2023-03-01T04:50:35;3.83;;;2.28;;
22421;SDS011;11378;51.642;7.668;2023-03-01T04:53:02;2.65;;;2.00;;
22421;SDS011;11378;51.642;7.668;2023-03-01T04:55:28;2.85;;;2.30;;
22421;SDS011;11378;51.642;7.668;2023-03-01T04:57:55;2.45;;;2.00;;
22421;SDS011;11378;51.642;7.668;2023-03-01T05:00:21;2.47;;;2.10;;
22421;SDS011;11378;51.642;7.668;2023-03-01T05:02:58;3.05;;;2.20;;
22421;SDS011;11378;51.642;7.668;2023-03-01T05:07:52;3.60;;;2.20;;
22421;SDS011;11378;51.642;7.668;2023-03-01T05:10:19;2.30;;;2.03;;
22421;SDS011;11378;51.642;7.668;2023-03-01T05:12:45;3.33;;;2.20;;
22421;SDS011;11378;51.642;7.668;2023-03-01T05:15:12;3.63;;;2.30;;
22421;SDS011;11378;51.642;7.668;2023-03-01T05:17:39;2.10;;;1.88;;
22421;SDS011;11378;51.642;7.668;2023-03-01T05:20:05;2.30;;;2.10;;
22421;SDS011;11378;51.642;7.668;2023-03-01T05:22:35;2.45;;;1.90;;
22421;SDS011;11378;51.642;7.668;2023-03-01T05:25:02;3.20;;;2.10;;
22421;SDS011;11378;51.642;7.668;2023-03-01T05:27:28;2.33;;;1.92;;
22421;SDS011;11378;51.642;7.668;2023-03-01T05:29:55;2.95;;;2.10;;
22421;SDS011;11378;51.642;7.668;2023-03-01T05:32:22;3.10;;;2.30;;
22421;SDS011;11378;51.642;7.668;2023-03-01T05:34:48;2.63;;;1.90;;
22421;SDS011;11378;51.642;7.668;2023-03-01T05:37:17;2.67;;;2.03;;
22421;SDS011;11378;51.642;7.668;2023-03-01T05:39:44;2.47;;;2.00;;
22421;SDS011;11378;51.642;7.668;2023-03-01T05:42:11;2.20;;;2.00;;
22421;SDS011;11378;51.642;7.668;2023-03-01T05:44:37;2.50;;;2.08;;
22421;SDS011;11378;51.642;7.668;2023-03-01T05:47:04;3.60;;;2.97;;
22421;SDS011;11378;51.642;7.668;2023-03-01T05:49:31;3.10;;;2.72;;
22421;SDS011;11378;51.642;7.668;2023-03-01T05:51:57;3.63;;;2.80;;
22421;SDS011;11378;51.642;7.668;2023-03-01T05:54:24;3.55;;;2.60;;
22421;SDS011;11378;51.642;7.668;2023-03-01T05:56:50;3.20;;;2.40;;
22421;SDS011;11378;51.642;7.668;2023-03-01T05:59:16;4.50;;;2.78;;
22421;SDS011;11378;51.642;7.668;2023-03-01T06:01:42;3.05;;;2.03;;
22421;SDS011;11378;51.642;7.668;2023-03-01T06:04:09;2.85;;;2.30;;
22421;SDS011;11378;51.642;7.668;2023-03-01T06:06:36;3.92;;;2.47;;
22421;SDS011;11378;51.642;7.668;2023-03-01T06:09:05;3.60;;;2.38;;
22421;SDS011;11378;51.642;7.668;2023-03-01T06:11:34;3.95;;;2.58;;
22421;SDS011;11378;51.642;7.668;2023-03-01T06:14:01;2.80;;;2.20;;
22421;SDS011;11378;51.642;7.668;2023-03-01T06:16:27;2.78;;;2.15;;
22421;SDS011;11378;51.642;7.668;2023-03-01T06:18:53;3.80;;;2.40;;
22421;SDS011;11378;51.642;7.668;2023-03-01T06:21:19;3.17;;;2.60;;
22421;SDS011;11378;51.642;7.668;2023-03-01T06:23:45;2.28;;;1.98;;
22421;SDS011;11378;51.642;7.668;2023-03-01T06:26:12;3.45;;;2.30;;
22421;SDS011;11378;51.642;7.668;2023-03-01T06:28:38;2.88;;;2.30;;
22421;SDS011;11378;51.642;7.668;2023-03-01T06:31:04;2.53;;;2.22;;
22421;SDS011;11378;51.642;7.668;2023-03-01T06:33:33;3.28;;;2.40;;
22421;SDS011;11378;51.642;7.668;2023-03-01T06:36:01;2.97;;;2.60;;
22421;SDS011;11378;51.642;7.668;2023-03-01T06:38:27;3.33;;;2.47;;
22421;SDS011;11378;51.642;7.668;2023-03-01T06:40:53;3.17;;;2.50;;
22421;SDS011;11378;51.642;7.668;2023-03-01T06:43:21;3.47;;;2.45;;
22421;SDS011;11378;51.642;7.668;2023-03-01T06:45:48;3.13;;;2.50;;
22421;SDS011;11378;51.642;7.668;2023-03-01T06:48:14;3.42;;;2.33;;
22421;SDS011;11378;51.642;7.668;2023-03-01T06:50:41;2.88;;;2.38;;
22421;SDS011;11378;51.642;7.668;2023-03-01T06:53:07;3.85;;;2.28;;
22421;SDS011;11378;51.642;7.668;2023-03-01T06:55:33;2.83;;;1.92;;
22421;SDS011;11378;51.642;7.668;2023-03-01T06:58:00;3.17;;;2.17;;
22421;SDS011;11378;51.642;7.668;2023-03-01T07:00:26;3.40;;;2.25;;
22421;SDS011;11378;51.642;7.668;2023-03-01T07:02:53;4.63;;;2.60;;
22421;SDS011;11378;51.642;7.668;2023-03-01T07:05:19;4.32;;;2.50;;
22421;SDS011;11378;51.642;7.668;2023-03-01T07:07:45;3.00;;;2.33;;
22421;SDS011;11378;51.642;7.668;2023-03-01T07:10:12;3.95;;;2.45;;
22421;SDS011;11378;51.642;7.668;2023-03-01T07:12:38;2.70;;;2.17;;
22421;SDS011;11378;51.642;7.668;2023-03-01T07:15:05;2.45;;;2.20;;
22421;SDS011;11378;51.642;7.668;2023-03-01T07:17:34;4.13;;;2.10;;
22421;SDS011;11378;51.642;7.668;2023-03-01T07:20:00;3.15;;;2.58;;
22421;SDS011;11378;51.642;7.668;2023-03-01T07:22:26;2.97;;;2.28;;
22421;SDS011;11378;51.642;7.668;2023-03-01T07:24:52;2.45;;;2.15;;
22421;SDS011;11378;51.642;7.668;2023-03-01T07:27:39;2.85;;;2.20;;
22421;SDS011;11378;51.642;7.668;2023-03-01T07:30:06;3.08;;;2.25;;
22421;SDS011;11378;51.642;7.668;2023-03-01T07:32:33;2.90;;;2.38;;
22421;SDS011;11378;51.642;7.668;2023-03-01T07:34:59;2.55;;;2.35;;
22421;SDS011;11378;51.642;7.668;2023-03-01T07:37:25;2.83;;;2.30;;
22421;SDS011;11378;51.642;7.668;2023-03-01T07:39:52;2.40;;;2.00;;
22421;SDS011;11378;51.642;7.668;2023-03-01T07:42:18;3.75;;;2.50;;
22421;SDS011;11378;51.642;7.668;2023-03-01T07:44:44;2.90;;;2.40;;
22421;SDS011;11378;51.642;7.668;2023-03-01T07:47:11;2.95;;;2.25;;
22421;SDS011;11378;51.642;7.668;2023-03-01T07:49:37;2.88;;;2.30;;
22421;SDS011;11378;51.642;7.668;2023-03-01T07:52:03;2.40;;;2.17;;
22421;SDS011;11378;51.642;7.668;2023-03-01T07:54:30;2.90;;;2.38;;
22421;SDS011;11378;51.642;7.668;2023-03-01T07:56:56;3.17;;;2.20;;
22421;SDS011;11378;51.642;7.668;2023-03-01T07:59:22;3.22;;;2.28;;
22421;SDS011;11378;51.642;7.668;2023-03-01T08:01:54;2.92;;;2.17;;
22421;SDS011;11378;51.642;7.668;2023-03-01T08:04:20;2.95;;;2.30;;
22421;SDS011;11378;51.642;7.668;2023-03-01T08:06:46;2.85;;;2.15;;
22421;SDS011;11378;51.642;7.668;2023-03-01T08:09:12;2.78;;;2.17;;
22421;SDS011;11378;51.642;7.668;2023-03-01T08:11:39;2.67;;;2.35;;
22421;SDS011;11378;51.642;7.668;2023-03-01T08:14:06;3.53;;;2.72;;
22421;SDS011;11378;51.642;7.668;2023-03-01T08:16:32;2.17;;;1.80;;
22421;SDS011;11378;51.642;7.668;2023-03-01T08:19:06;3.20;;;2.45;;
22421;SDS011;11378;51.642;7.668;2023-03-01T08:21:33;3.63;;;2.60;;
22421;SDS011;11378;51.642;7.668;2023-03-01T08:24:00;4.45;;;2.33;;
22421;SDS011;11378;51.642;7.668;2023-03-01T08:26:27;5.38;;;2.50;;
22421;SDS011;11378;51.642;7.668;2023-03-01T08:28:53;3.15;;;2.50;;
22421;SDS011;11378;51.642;7.668;2023-03-01T08:31:23;3.00;;;2.40;;
22421;SDS011;11378;51.642;7.668;2023-03-01T08:33:51;5.20;;;2.47;;
22421;SDS011;11378;51.642;7.668;2023-03-01T08:36:20;3.10;;;2.50;;
22421;SDS011;11378;51.642;7.668;2023-03-01T08:38:46;3.22;;;2.35;;
22421;SDS011;11378;51.642;7.668;2023-03-01T08:41:13;3.25;;;2.78;;
22421;SDS011;11378;51.642;7.668;2023-03-01T08:43:56;3.70;;;2.30;;
22421;SDS011;11378;51.642;7.668;2023-03-01T08:46:26;3.25;;;2.30;;
22421;SDS011;11378;51.642;7.668;2023-03-01T08:48:52;3.70;;;2.40;;
22421;SDS011;11378;51.642;7.668;2023-03-01T08:51:19;3.20;;;2.10;;
22421;SDS011;11378;51.642;7.668;2023-03-01T08:53:47;2.92;;;2.30;;
22421;SDS011;11378;51.642;7.668;2023-03-01T08:56:28;2.75;;;2.30;;
22421;SDS011;11378;51.642;7.668;2023-03-01T08:58:55;2.28;;;2.00;;
22421;SDS011;11378;51.642;7.668;2023-03-01T09:01:21;2.45;;;2.17;;
22421;SDS011;11378;51.642;7.668;2023-03-01T09:06:33;3.13;;;2.30;;
22421;SDS011;11378;51.642;7.668;2023-03-01T09:09:00;2.58;;;2.13;;
22421;SDS011;11378;51.642;7.668;2023-03-01T09:11:27;2.67;;;1.95;;
22421;SDS011;11378;51.642;7.668;2023-03-01T09:13:53;2.35;;;2.03;;
22421;SDS011;11378;51.642;7.668;2023-03-01T09:16:20;2.70;;;2.05;;
22421;SDS011;11378;51.642;7.668;2023-03-01T09:18:50;2.10;;;1.90;;
22421;SDS011;11378;51.642;7.668;2023-03-01T09:23:44;2.58;;;2.05;;
22421;SDS011;11378;51.642;7.668;2023-03-01T09:26:12;2.70;;;2.10;;
22421;SDS011;11378;51.642;7.668;2023-03-01T09:28:39;2.47;;;2.00;;
22421;SDS011;11378;51.642;7.668;2023-03-01T09:31:09;2.67;;;2.00;;
22421;SDS011;11378;51.642;7.668;2023-03-01T09:33:38;2.55;;;1.88;;
22421;SDS011;11378;51.642;7.668;2023-03-01T09:36:05;2.22;;;1.98;;
22421;SDS011;11378;51.642;7.668;2023-03-01T09:38:32;3.67;;;2.33;;
22421;SDS011;11378;51.642;7.668;2023-03-01T09:40:59;2.03;;;1.83;;
22421;SDS011;11378;51.642;7.668;2023-03-01T09:43:45;2.45;;;1.92;;
22421;SDS011;11378;51.642;7.668;2023-03-01T09:46:13;1.77;;;1.63;;
22421;SDS011;11378;51.642;7.668;2023-03-01T09:48:46;1.85;;;1.70;;
22421;SDS011;11378;51.642;7.668;2023-03-01T09:51:18;2.47;;;2.03;;
22421;SDS011;11378;51.642;7.668;2023-03-01T09:53:45;2.03;;;1.77;;
22421;SDS011;11378;51.642;7.668;2023-03-01T09:56:22;3.10;;;2.15;;
22421;SDS011;11378;51.642;7.668;2023-03-01T10:01:36;2.40;;;1.50;;
22421;SDS011;11378;51.642;7.668;2023-03-01T10:04:05;2.58;;;1.77;;
22421;SDS011;11378;51.642;7.668;2023-03-01T10:06:35;2.55;;;1.90;;
22421;SDS011;11378;51.642;7.668;2023-03-01T10:09:05;2.50;;;1.98;;
22421;SDS011;11378;51.642;7.668;2023-03-01T10:11:37;2.28;;;1.70;;
22421;SDS011;11378;51.642;7.668;2023-03-01T10:22:13;2.30;;;1.73;;
22421;SDS011;11378;51.642;7.668;2023-03-01T10:29:51;2.53;;;1.90;;
22421;SDS011;11378;51.642;7.668;2023-03-01T10:32:21;1.90;;;1.73;;
22421;SDS011;11378;51.642;7.668;2023-03-01T10:34:47;2.20;;;2.00;;
22421;SDS011;11378;51.642;7.668;2023-03-01T10:37:17;2.50;;;1.90;;
22421;SDS011;11378;51.642;7.668;2023-03-01T10:39:55;3.03;;;2.10;;
22421;SDS011;11378;51.642;7.668;2023-03-01T10:42:26;2.40;;;1.90;;
22421;SDS011;11378;51.642;7.668;2023-03-01T10:44:52;3.40;;;1.60;;
22421;SDS011;11378;51.642;7.668;2023-03-01T10:47:20;2.20;;;2.00;;
22421;SDS011;11378;51.642;7.668;2023-03-01T10:49:57;2.40;;;1.88;;
22421;SDS011;11378;51.642;7.668;2023-03-01T10:52:26;2.53;;;1.83;;
22421;SDS011;11378;51.642;7.668;2023-03-01T10:57:38;3.00;;;2.10;;
22421;SDS011;11378;51.642;7.668;2023-03-01T11:00:19;2.25;;;1.80;;
22421;SDS011;11378;51.642;7.668;2023-03-01T11:05:44;2.47;;;1.73;;
22421;SDS011;11378;51.642;7.668;2023-03-01T11:08:26;1.83;;;1.58;;
22421;SDS011;11378;51.642;7.668;2023-03-01T11:11:40;1.97;;;1.60;;
22421;SDS011;11378;51.642;7.668;2023-03-01T11:16:47;1.70;;;1.60;;
22421;SDS011;11378;51.642;7.668;2023-03-01T11:19:14;1.95;;;1.48;;
22421;SDS011;11378;51.642;7.668;2023-03-01T11:24:14;2.30;;;1.67;;
22421;SDS011;11378;51.642;7.668;2023-03-01T11:26:41;1.60;;;1.50;;
22421;SDS011;11378;51.642;7.668;2023-03-01T11:29:51;3.28;;;1.75;;
22421;SDS011;11378;51.642;7.668;2023-03-01T11:31:59;1.90;;;1.60;;
22421;SDS011;11378;51.642;7.668;2023-03-01T11:37:29;2.92;;;1.80;;
22421;SDS011;11378;51.642;7.668;2023-03-01T11:39:59;3.28;;;1.80;;
22421;SDS011;11378;51.642;7.668;2023-03-01T11:42:42;1.95;;;1.63;;
22421;SDS011;11378;51.642;7.668;2023-03-01T11:45:10;1.92;;;1.38;;
22421;SDS011;11378;51.642;7.668;2023-03-01T11:47:59;1.90;;;1.65;;
22421;SDS011;11378;51.642;7.668;2023-03-01T11:50:30;2.10;;;1.70;;
22421;SDS011;11378;51.642;7.668;2023-03-01T11:53:05;2.80;;;1.80;;
22421;SDS011;11378;51.642;7.668;2023-03-01T11:55:41;2.10;;;1.67;;
22421;SDS011;11378;51.642;7.668;2023-03-01T11:58:22;2.80;;;1.80;;
22421;SDS011;11378;51.642;7.668;2023-03-01T12:01:11;2.20;;;1.67;;
22421;SDS011;11378;51.642;7.668;2023-03-01T12:14:35;1.50;;;1.40;;
22421;SDS011;11378;51.642;7.668;2023-03-01T12:19:58;2.45;;;1.75;;
22421;SDS011;11378;51.642;7.668;2023-03-01T12:22:29;2.47;;;1.60;;
22421;SDS011;11378;51.642;7.668;2023-03-01T12:30:04;1.90;;;1.60;;
22421;SDS011;11378;51.642;7.668;2023-03-01T12:32:40;1.95;;;1.40;;
22421;SDS011;11378;51.642;7.668;2023-03-01T12:40:32;1.73;;;1.30;;
22421;SDS011;11378;51.642;7.668;2023-03-01T12:48:31;1.60;;;1.50;;
22421;SDS011;11378;51.642;7.668;2023-03-01T12:51:05;1.60;;;1.50;;
22421;SDS011;11378;51.642;7.668;2023-03-01T12:53:38;3.53;;;1.52;;
22421;SDS011;11378;51.642;7.668;2023-03-01T12:56:06;2.13;;;1.23;;
22421;SDS011;11378;51.642;7.668;2023-03-01T12:58:33;3.13;;;1.63;;
22421;SDS011;11378;51.642;7.668;2023-03-01T13:11:26;2.22;;;1.40;;
22421;SDS011;11378;51.642;7.668;2023-03-01T13:14:00;2.08;;;1.42;;
22421;SDS011;11378;51.642;7.668;2023-03-01T13:16:40;3.13;;;1.50;;
22421;SDS011;11378;51.642;7.668;2023-03-01T13:21:34;2.47;;;1.40;;
22421;SDS011;11378;51.642;7.668;2023-03-01T13:24:00;1.45;;;1.35;;
22421;SDS011;11378;51.642;7.668;2023-03-01T13:26:26;3.53;;;1.40;;
22421;SDS011;11378;51.642;7.668;2023-03-01T13:28:56;2.08;;;1.60;;
22421;SDS011;11378;51.642;7.668;2023-03-01T13:33:58;1.83;;;1.45;;
22421;SDS011;11378;51.642;7.668;2023-03-01T13:39:20;1.75;;;1.50;;
22421;SDS011;11378;51.642;7.668;2023-03-01T13:41:56;2.15;;;1.50;;
22421;SDS011;11378;51.642;7.668;2023-03-01T13:46:52;2.15;;;1.60;;
22421;SDS011;11378;51.642;7.668;2023-03-01T13:49:23;2.10;;;1.52;;
22421;SDS011;11378;51.642;7.668;2023-03-01T13:51:51;2.05;;;1.65;;
22421;SDS011;11378;51.642;7.668;2023-03-01T13:54:29;1.63;;;1.52;;
22421;SDS011;11378;51.642;7.668;2023-03-01T13:56:55;1.55;;;1.35;;
22421;SDS011;11378;51.642;7.668;2023-03-01T13:59:22;2.35;;;1.60;;
22421;SDS011;11378;51.642;7.668;2023-03-01T14:01:55;1.60;;;1.48;;
22421;SDS011;11378;51.642;7.668;2023-03-01T14:04:26;1.88;;;1.58;;
22421;SDS011;11378;51.642;7.668;2023-03-01T14:07:08;1.90;;;1.40;;
22421;SDS011;11378;51.642;7.668;2023-03-01T14:09:35;1.77;;;1.50;;
22421;SDS011;11378;51.642;7.668;2023-03-01T14:14:45;1.95;;;1.50;;
22421;SDS011;11378;51.642;7.668;2023-03-01T14:17:29;3.97;;;1.40;;
22421;SDS011;11378;51.642;7.668;2023-03-01T14:20:00;1.73;;;1.55;;
22421;SDS011;11378;51.642;7.668;2023-03-01T14:22:30;2.97;;;1.58;;
22421;SDS011;11378;51.642;7.668;2023-03-01T14:24:58;1.45;;;1.35;;
22421;SDS011;11378;51.642;7.668;2023-03-01T14:27:40;2.65;;;1.70;;
22421;SDS011;11378;51.642;7.668;2023-03-01T14:32:37;1.60;;;1.45;;
22421;SDS011;11378;51.642;7.668;2023-03-01T14:35:18;1.40;;;1.30;;
22421;SDS011;11378;51.642;7.668;2023-03-01T14:37:44;2.33;;;1.30;;
22421;SDS011;11378;51.642;7.668;2023-03-01T14:40:21;2.25;;;1.25;;
22421;SDS011;11378;51.642;7.668;2023-03-01T14:42:47;2.35;;;1.60;;
22421;SDS011;11378;51.642;7.668;2023-03-01T14:45:13;1.42;;;1.33;;
22421;SDS011;11378;51.642;7.668;2023-03-01T14:47:39;1.67;;;1.30;;
22421;SDS011;11378;51.642;7.668;2023-03-01T14:50:15;1.40;;;1.30;;
22421;SDS011;11378;51.642;7.668;2023-03-01T14:52:44;2.72;;;1.65;;
22421;SDS011;11378;51.642;7.668;2023-03-01T14:55:18;1.67;;;1.20;;
22421;SDS011;11378;51.642;7.668;2023-03-01T14:57:47;1.40;;;1.20;;
22421;SDS011;11378;51.642;7.668;2023-03-01T15:00:21;2.08;;;1.55;;
22421;SDS011;11378;51.642;7.668;2023-03-01T15:02:48;1.65;;;1.50;;
22421;SDS011;11378;51.642;7.668;2023-03-01T15:05:16;1.73;;;1.60;;
22421;SDS011;11378;51.642;7.668;2023-03-01T15:07:43;1.63;;;1.40;;
22421;SDS011;11378;51.642;7.668;2023-03-01T15:10:24;2.30;;;1.73;;
22421;SDS011;11378;51.642;7.668;2023-03-01T15:12:51;1.20;;;1.10;;
22421;SDS011;11378;51.642;7.668;2023-03-01T15:17:50;1.70;;;1.40;;
22421;SDS011;11378;51.642;7.668;2023-03-01T15:20:20;1.50;;;1.30;;
22421;SDS011;11378;51.642;7.668;2023-03-01T15:22:47;2.08;;;1.35;;
22421;SDS011;11378;51.642;7.668;2023-03-01T15:25:21;1.48;;;1.38;;
22421;SDS011;11378;51.642;7.668;2023-03-01T15:27:49;1.38;;;1.23;;
22421;SDS011;11378;51.642;7.668;2023-03-01T15:30:23;1.42;;;1.30;;
22421;SDS011;11378;51.642;7.668;2023-03-01T15:35:44;1.73;;;1.35;;
22421;SDS011;11378;51.642;7.668;2023-03-01T15:38:26;1.75;;;1.48;;
22421;SDS011;11378;51.642;7.668;2023-03-01T15:46:03;1.55;;;1.20;;
22421;SDS011;11378;51.642;7.668;2023-03-01T15:48:31;1.98;;;1.40;;
22421;SDS011;11378;51.642;7.668;2023-03-01T15:50:57;1.70;;;1.20;;
22421;SDS011;11378;51.642;7.668;2023-03-01T15:53:24;1.88;;;1.33;;
22421;SDS011;11378;51.642;7.668;2023-03-01T15:55:51;2.10;;;1.23;;
22421;SDS011;11378;51.642;7.668;2023-03-01T15:58:21;1.90;;;1.38;;
22421;SDS011;11378;51.642;7.668;2023-03-01T16:00:48;2.53;;;1.48;;
22421;SDS011;11378;51.642;7.668;2023-03-01T16:03:21;1.50;;;1.20;;
22421;SDS011;11378;51.642;7.668;2023-03-01T16:05:48;1.80;;;1.50;;
22421;SDS011;11378;51.642;7.668;2023-03-01T16:08:15;1.50;;;1.40;;
22421;SDS011;11378;51.642;7.668;2023-03-01T16:10:41;1.48;;;1.30;;
22421;SDS011;11378;51.642;7.668;2023-03-01T16:13:14;1.50;;;1.38;;
22421;SDS011;11378;51.642;7.668;2023-03-01T16:15:40;2.47;;;1.52;;
22421;SDS011;11378;51.642;7.668;2023-03-01T16:18:06;1.30;;;1.17;;
22421;SDS011;11378;51.642;7.668;2023-03-01T16:20:35;2.10;;;1.20;;
22421;SDS011;11378;51.642;7.668;2023-03-01T16:23:03;1.30;;;1.20;;
22421;SDS011;11378;51.642;7.668;2023-03-01T16:25:33;1.50;;;1.40;;
22421;SDS011;11378;51.642;7.668;2023-03-01T16:27:59;1.60;;;1.30;;
22421;SDS011;11378;51.642;7.668;2023-03-01T16:30:30;2.42;;;1.50;;
22421;SDS011;11378;51.642;7.668;2023-03-01T16:32:56;1.60;;;1.40;;
22421;SDS011;11378;51.642;7.668;2023-03-01T16:35:23;1.88;;;1.42;;
22421;SDS011;11378;51.642;7.668;2023-03-01T16:37:49;1.30;;;1.20;;
22421;SDS011;11378;51.642;7.668;2023-03-01T16:40:19;2.33;;;1.50;;
22421;SDS011;11378;51.642;7.668;2023-03-01T16:42:49;1.52;;;1.30;;
22421;SDS011;11378;51.642;7.668;2023-03-01T16:45:15;1.63;;;1.27;;
22421;SDS011;11378;51.642;7.668;2023-03-01T16:51:11;2.55;;;1.58;;
22421;SDS011;11378;51.642;7.668;2023-03-01T16:53:37;1.75;;;1.50;;
22421;SDS011;11378;51.642;7.668;2023-03-01T16:56:05;1.67;;;1.27;;
22421;SDS011;11378;51.642;7.668;2023-03-01T16:58:33;1.58;;;1.48;;